sensor_id;sensor_type;location;lat;lon;timestamp;P1;durP1;ratioP1;P2;durP2;ratioP2
5357;SDS011;2702;51.014;7.170;2022-07-23T00:01:29;19.27;;;17.27;;
5357;SDS011;2702;51.014;7.170;2022-07-23T00:03:56;21.47;;;19.30;;
5357;SDS011;2702;51.014;7.170;2022-07-23T00:06:22;20.10;;;18.00;;
5357;SDS011;2702;51.014;7.170;2022-07-23T00:08:49;22.70;;;18.57;;
5357;SDS011;2702;51.014;7.170;2022-07-23T00:11:16;21.10;;;18.13;;
5357;SDS011;2702;51.014;7.170;2022-07-23T00:13:42;21.73;;;19.30;;
5357;SDS011;2702;51.014;7.170;2022-07-23T00:16:08;19.77;;;17.77;;
5357;SDS011;2702;51.014;7.170;2022-07-23T00:18:34;20.13;;;18.03;;
5357;SDS011;2702;51.014;7.170;2022-07-23T00:21:00;21.83;;;18.67;;
5357;SDS011;2702;51.014;7.170;2022-07-23T00:23:26;20.63;;;18.53;;
5357;SDS011;2702;51.014;7.170;2022-07-23T00:25:54;19.37;;;17.43;;
5357;SDS011;2702;51.014;7.170;2022-07-23T00:28:20;19.27;;;17.20;;
5357;SDS011;2702;51.014;7.170;2022-07-23T00:30:46;20.20;;;17.33;;
5357;SDS011;2702;51.014;7.170;2022-07-23T00:33:12;18.67;;;16.83;;
5357;SDS011;2702;51.014;7.170;2022-07-23T00:35:39;19.80;;;17.60;;
5357;SDS011;2702;51.014;7.170;2022-07-23T00:38:07;21.10;;;16.30;;
5357;SDS011;2702;51.014;7.170;2022-07-23T00:40:37;17.70;;;15.80;;
5357;SDS011;2702;51.014;7.170;2022-07-23T00:43:04;18.03;;;15.23;;
5357;SDS011;2702;51.014;7.170;2022-07-23T00:45:30;18.73;;;15.77;;
5357;SDS011;2702;51.014;7.170;2022-07-23T00:47:56;21.43;;;15.07;;
5357;SDS011;2702;51.014;7.170;2022-07-23T00:50:23;15.70;;;14.00;;
5357;SDS011;2702;51.014;7.170;2022-07-23T00:52:49;18.20;;;15.33;;
5357;SDS011;2702;51.014;7.170;2022-07-23T00:55:15;21.73;;;16.27;;
5357;SDS011;2702;51.014;7.170;2022-07-23T00:57:41;20.80;;;16.50;;
5357;SDS011;2702;51.014;7.170;2022-07-23T01:00:08;16.90;;;15.10;;
5357;SDS011;2702;51.014;7.170;2022-07-23T01:02:38;17.30;;;15.50;;
5357;SDS011;2702;51.014;7.170;2022-07-23T01:05:04;18.50;;;15.70;;
5357;SDS011;2702;51.014;7.170;2022-07-23T01:07:31;16.83;;;15.03;;
5357;SDS011;2702;51.014;7.170;2022-07-23T01:09:57;19.23;;;15.70;;
5357;SDS011;2702;51.014;7.170;2022-07-23T01:12:25;16.73;;;14.37;;
5357;SDS011;2702;51.014;7.170;2022-07-23T01:14:54;16.37;;;14.67;;
5357;SDS011;2702;51.014;7.170;2022-07-23T01:17:21;19.70;;;15.60;;
5357;SDS011;2702;51.014;7.170;2022-07-23T01:19:47;16.70;;;14.90;;
5357;SDS011;2702;51.014;7.170;2022-07-23T01:22:13;17.00;;;14.07;;
5357;SDS011;2702;51.014;7.170;2022-07-23T01:24:42;19.97;;;15.10;;
5357;SDS011;2702;51.014;7.170;2022-07-23T01:27:08;20.53;;;16.13;;
5357;SDS011;2702;51.014;7.170;2022-07-23T01:29:34;20.10;;;15.70;;
5357;SDS011;2702;51.014;7.170;2022-07-23T01:32:00;17.60;;;15.67;;
5357;SDS011;2702;51.014;7.170;2022-07-23T01:34:26;20.67;;;16.37;;
5357;SDS011;2702;51.014;7.170;2022-07-23T01:36:52;19.50;;;15.70;;
5357;SDS011;2702;51.014;7.170;2022-07-23T01:39:18;18.70;;;16.67;;
5357;SDS011;2702;51.014;7.170;2022-07-23T01:41:44;17.37;;;15.50;;
5357;SDS011;2702;51.014;7.170;2022-07-23T01:44:10;17.80;;;15.90;;
5357;SDS011;2702;51.014;7.170;2022-07-23T01:46:35;20.40;;;18.00;;
5357;SDS011;2702;51.014;7.170;2022-07-23T01:49:03;23.23;;;19.33;;
5357;SDS011;2702;51.014;7.170;2022-07-23T01:51:29;20.10;;;17.47;;
5357;SDS011;2702;51.014;7.170;2022-07-23T01:53:54;20.17;;;15.90;;
5357;SDS011;2702;51.014;7.170;2022-07-23T01:56:20;18.93;;;16.23;;
5357;SDS011;2702;51.014;7.170;2022-07-23T01:58:47;19.03;;;16.10;;
5357;SDS011;2702;51.014;7.170;2022-07-23T02:01:14;17.23;;;15.47;;
5357;SDS011;2702;51.014;7.170;2022-07-23T02:03:40;19.60;;;15.57;;
5357;SDS011;2702;51.014;7.170;2022-07-23T02:06:05;19.80;;;16.57;;
5357;SDS011;2702;51.014;7.170;2022-07-23T02:08:31;17.10;;;15.00;;
5357;SDS011;2702;51.014;7.170;2022-07-23T02:10:57;16.77;;;15.03;;
5357;SDS011;2702;51.014;7.170;2022-07-23T02:13:23;17.00;;;14.27;;
5357;SDS011;2702;51.014;7.170;2022-07-23T02:15:50;17.80;;;14.40;;
5357;SDS011;2702;51.014;7.170;2022-07-23T02:18:16;17.00;;;14.00;;
5357;SDS011;2702;51.014;7.170;2022-07-23T02:20:42;18.00;;;15.70;;
5357;SDS011;2702;51.014;7.170;2022-07-23T02:23:09;18.30;;;15.20;;
5357;SDS011;2702;51.014;7.170;2022-07-23T02:25:35;18.30;;;16.07;;
5357;SDS011;2702;51.014;7.170;2022-07-23T02:28:01;18.03;;;15.40;;
5357;SDS011;2702;51.014;7.170;2022-07-23T02:30:27;18.83;;;15.97;;
5357;SDS011;2702;51.014;7.170;2022-07-23T02:32:54;18.83;;;16.53;;
5357;SDS011;2702;51.014;7.170;2022-07-23T02:35:21;19.70;;;16.60;;
5357;SDS011;2702;51.014;7.170;2022-07-23T02:37:47;18.80;;;15.73;;
5357;SDS011;2702;51.014;7.170;2022-07-23T02:40:13;18.83;;;16.83;;
5357;SDS011;2702;51.014;7.170;2022-07-23T02:42:39;19.30;;;16.53;;
5357;SDS011;2702;51.014;7.170;2022-07-23T02:45:05;20.40;;;17.17;;
5357;SDS011;2702;51.014;7.170;2022-07-23T02:47:31;19.80;;;17.70;;
5357;SDS011;2702;51.014;7.170;2022-07-23T02:49:57;23.40;;;18.50;;
5357;SDS011;2702;51.014;7.170;2022-07-23T02:52:23;22.63;;;18.90;;
5357;SDS011;2702;51.014;7.170;2022-07-23T02:54:49;21.53;;;18.00;;
5357;SDS011;2702;51.014;7.170;2022-07-23T02:57:15;22.60;;;17.23;;
5357;SDS011;2702;51.014;7.170;2022-07-23T02:59:41;21.60;;;18.23;;
5357;SDS011;2702;51.014;7.170;2022-07-23T03:02:07;20.70;;;18.10;;
5357;SDS011;2702;51.014;7.170;2022-07-23T03:04:33;24.57;;;18.90;;
5357;SDS011;2702;51.014;7.170;2022-07-23T03:06:59;23.07;;;18.63;;
5357;SDS011;2702;51.014;7.170;2022-07-23T03:09:25;20.27;;;17.57;;
5357;SDS011;2702;51.014;7.170;2022-07-23T03:11:51;23.00;;;17.80;;
5357;SDS011;2702;51.014;7.170;2022-07-23T03:14:16;24.50;;;18.50;;
5357;SDS011;2702;51.014;7.170;2022-07-23T03:16:42;20.63;;;18.37;;
5357;SDS011;2702;51.014;7.170;2022-07-23T03:19:08;21.43;;;18.20;;
5357;SDS011;2702;51.014;7.170;2022-07-23T03:21:34;21.00;;;17.10;;
5357;SDS011;2702;51.014;7.170;2022-07-23T03:24:04;20.47;;;17.87;;
5357;SDS011;2702;51.014;7.170;2022-07-23T03:26:30;24.10;;;18.63;;
5357;SDS011;2702;51.014;7.170;2022-07-23T03:28:55;23.73;;;18.50;;
5357;SDS011;2702;51.014;7.170;2022-07-23T03:31:21;26.40;;;18.77;;
5357;SDS011;2702;51.014;7.170;2022-07-23T03:33:47;24.80;;;20.20;;
5357;SDS011;2702;51.014;7.170;2022-07-23T03:36:15;24.83;;;19.73;;
5357;SDS011;2702;51.014;7.170;2022-07-23T03:38:41;21.30;;;17.53;;
5357;SDS011;2702;51.014;7.170;2022-07-23T03:41:07;20.67;;;17.03;;
5357;SDS011;2702;51.014;7.170;2022-07-23T03:43:33;21.77;;;18.10;;
5357;SDS011;2702;51.014;7.170;2022-07-23T03:45:59;22.43;;;18.23;;
5357;SDS011;2702;51.014;7.170;2022-07-23T03:48:25;22.73;;;18.80;;
5357;SDS011;2702;51.014;7.170;2022-07-23T03:50:50;19.63;;;16.87;;
5357;SDS011;2702;51.014;7.170;2022-07-23T03:53:16;18.90;;;16.60;;
5357;SDS011;2702;51.014;7.170;2022-07-23T03:55:42;22.43;;;18.43;;
5357;SDS011;2702;51.014;7.170;2022-07-23T03:58:08;23.40;;;18.90;;
5357;SDS011;2702;51.014;7.170;2022-07-23T04:00:34;21.07;;;17.93;;
5357;SDS011;2702;51.014;7.170;2022-07-23T04:03:00;22.53;;;18.47;;
5357;SDS011;2702;51.014;7.170;2022-07-23T04:05:26;25.60;;;18.90;;
5357;SDS011;2702;51.014;7.170;2022-07-23T04:07:51;21.67;;;18.33;;
5357;SDS011;2702;51.014;7.170;2022-07-23T04:10:17;21.47;;;17.97;;
5357;SDS011;2702;51.014;7.170;2022-07-23T04:12:43;20.63;;;17.50;;
5357;SDS011;2702;51.014;7.170;2022-07-23T04:15:09;24.43;;;17.83;;
5357;SDS011;2702;51.014;7.170;2022-07-23T04:17:35;30.30;;;17.30;;
5357;SDS011;2702;51.014;7.170;2022-07-23T04:20:01;31.77;;;17.27;;
5357;SDS011;2702;51.014;7.170;2022-07-23T04:22:28;22.63;;;17.57;;
5357;SDS011;2702;51.014;7.170;2022-07-23T04:24:55;38.90;;;17.47;;
5357;SDS011;2702;51.014;7.170;2022-07-23T04:27:21;16.77;;;14.97;;
5357;SDS011;2702;51.014;7.170;2022-07-23T04:29:47;22.77;;;15.63;;
5357;SDS011;2702;51.014;7.170;2022-07-23T04:32:12;33.07;;;16.90;;
5357;SDS011;2702;51.014;7.170;2022-07-23T04:34:38;17.50;;;14.87;;
5357;SDS011;2702;51.014;7.170;2022-07-23T04:37:04;16.23;;;13.67;;
5357;SDS011;2702;51.014;7.170;2022-07-23T04:39:30;22.43;;;14.10;;
5357;SDS011;2702;51.014;7.170;2022-07-23T04:41:56;18.13;;;14.80;;
5357;SDS011;2702;51.014;7.170;2022-07-23T04:44:22;17.80;;;15.60;;
5357;SDS011;2702;51.014;7.170;2022-07-23T04:46:48;18.43;;;16.30;;
5357;SDS011;2702;51.014;7.170;2022-07-23T04:49:14;21.73;;;17.30;;
5357;SDS011;2702;51.014;7.170;2022-07-23T04:51:40;18.83;;;16.73;;
5357;SDS011;2702;51.014;7.170;2022-07-23T04:54:06;17.43;;;15.57;;
5357;SDS011;2702;51.014;7.170;2022-07-23T04:56:32;26.13;;;16.70;;
5357;SDS011;2702;51.014;7.170;2022-07-23T04:58:57;16.97;;;14.67;;
5357;SDS011;2702;51.014;7.170;2022-07-23T05:01:23;21.97;;;15.23;;
5357;SDS011;2702;51.014;7.170;2022-07-23T05:03:49;17.07;;;15.13;;
5357;SDS011;2702;51.014;7.170;2022-07-23T05:06:15;20.97;;;16.67;;
5357;SDS011;2702;51.014;7.170;2022-07-23T05:08:41;22.47;;;17.60;;
5357;SDS011;2702;51.014;7.170;2022-07-23T05:11:07;19.43;;;16.77;;
5357;SDS011;2702;51.014;7.170;2022-07-23T05:13:33;21.40;;;17.50;;
5357;SDS011;2702;51.014;7.170;2022-07-23T05:15:59;19.07;;;16.03;;
5357;SDS011;2702;51.014;7.170;2022-07-23T05:18:25;22.53;;;17.30;;
5357;SDS011;2702;51.014;7.170;2022-07-23T05:20:51;22.10;;;18.17;;
5357;SDS011;2702;51.014;7.170;2022-07-23T05:23:16;20.50;;;16.30;;
5357;SDS011;2702;51.014;7.170;2022-07-23T05:25:42;20.50;;;18.23;;
5357;SDS011;2702;51.014;7.170;2022-07-23T05:28:08;20.17;;;16.03;;
5357;SDS011;2702;51.014;7.170;2022-07-23T05:30:34;19.60;;;17.60;;
5357;SDS011;2702;51.014;7.170;2022-07-23T05:33:00;18.37;;;16.47;;
5357;SDS011;2702;51.014;7.170;2022-07-23T05:35:26;19.50;;;16.93;;
5357;SDS011;2702;51.014;7.170;2022-07-23T05:37:52;22.87;;;16.90;;
5357;SDS011;2702;51.014;7.170;2022-07-23T05:40:18;22.20;;;18.00;;
5357;SDS011;2702;51.014;7.170;2022-07-23T05:42:44;17.90;;;15.70;;
5357;SDS011;2702;51.014;7.170;2022-07-23T05:45:10;21.90;;;16.07;;
5357;SDS011;2702;51.014;7.170;2022-07-23T05:47:54;18.60;;;16.60;;
5357;SDS011;2702;51.014;7.170;2022-07-23T05:50:20;19.00;;;16.23;;
5357;SDS011;2702;51.014;7.170;2022-07-23T05:52:46;22.30;;;17.67;;
5357;SDS011;2702;51.014;7.170;2022-07-23T05:55:12;20.90;;;16.33;;
5357;SDS011;2702;51.014;7.170;2022-07-23T05:57:39;19.13;;;16.03;;
5357;SDS011;2702;51.014;7.170;2022-07-23T06:00:07;17.93;;;15.07;;
5357;SDS011;2702;51.014;7.170;2022-07-23T06:02:34;17.47;;;15.40;;
5357;SDS011;2702;51.014;7.170;2022-07-23T06:05:00;19.40;;;16.20;;
5357;SDS011;2702;51.014;7.170;2022-07-23T06:07:26;18.13;;;14.87;;
5357;SDS011;2702;51.014;7.170;2022-07-23T06:09:52;21.40;;;16.80;;
5357;SDS011;2702;51.014;7.170;2022-07-23T06:12:18;17.77;;;15.00;;
5357;SDS011;2702;51.014;7.170;2022-07-23T06:14:44;17.30;;;15.50;;
5357;SDS011;2702;51.014;7.170;2022-07-23T06:17:10;18.40;;;14.43;;
5357;SDS011;2702;51.014;7.170;2022-07-23T06:19:36;18.90;;;16.00;;
5357;SDS011;2702;51.014;7.170;2022-07-23T06:22:02;17.47;;;14.97;;
5357;SDS011;2702;51.014;7.170;2022-07-23T06:24:28;16.70;;;14.97;;
5357;SDS011;2702;51.014;7.170;2022-07-23T06:26:54;20.93;;;15.53;;
5357;SDS011;2702;51.014;7.170;2022-07-23T06:29:19;16.60;;;14.33;;
5357;SDS011;2702;51.014;7.170;2022-07-23T06:31:45;16.30;;;14.63;;
5357;SDS011;2702;51.014;7.170;2022-07-23T06:34:11;14.10;;;12.60;;
5357;SDS011;2702;51.014;7.170;2022-07-23T06:36:37;13.53;;;12.23;;
5357;SDS011;2702;51.014;7.170;2022-07-23T06:39:03;14.47;;;12.83;;
5357;SDS011;2702;51.014;7.170;2022-07-23T06:41:29;17.03;;;13.50;;
5357;SDS011;2702;51.014;7.170;2022-07-23T06:43:55;16.73;;;12.70;;
5357;SDS011;2702;51.014;7.170;2022-07-23T06:46:21;13.10;;;11.70;;
5357;SDS011;2702;51.014;7.170;2022-07-23T06:48:47;11.93;;;10.70;;
5357;SDS011;2702;51.014;7.170;2022-07-23T06:51:13;12.37;;;10.97;;
5357;SDS011;2702;51.014;7.170;2022-07-23T06:53:38;13.60;;;11.90;;
5357;SDS011;2702;51.014;7.170;2022-07-23T06:56:04;13.50;;;11.67;;
5357;SDS011;2702;51.014;7.170;2022-07-23T06:58:30;12.73;;;11.43;;
5357;SDS011;2702;51.014;7.170;2022-07-23T07:00:56;12.77;;;11.07;;
5357;SDS011;2702;51.014;7.170;2022-07-23T07:03:22;16.73;;;12.40;;
5357;SDS011;2702;51.014;7.170;2022-07-23T07:05:48;13.17;;;11.77;;
5357;SDS011;2702;51.014;7.170;2022-07-23T07:08:17;12.57;;;11.27;;
5357;SDS011;2702;51.014;7.170;2022-07-23T07:10:44;11.20;;;9.67;;
5357;SDS011;2702;51.014;7.170;2022-07-23T07:13:10;13.97;;;12.50;;
5357;SDS011;2702;51.014;7.170;2022-07-23T07:15:36;12.30;;;10.47;;
5357;SDS011;2702;51.014;7.170;2022-07-23T07:18:02;9.43;;;8.53;;
5357;SDS011;2702;51.014;7.170;2022-07-23T07:20:28;13.60;;;10.37;;
5357;SDS011;2702;51.014;7.170;2022-07-23T07:22:54;10.47;;;8.77;;
5357;SDS011;2702;51.014;7.170;2022-07-23T07:25:20;11.10;;;9.07;;
5357;SDS011;2702;51.014;7.170;2022-07-23T07:27:46;10.77;;;9.17;;
5357;SDS011;2702;51.014;7.170;2022-07-23T07:30:12;11.50;;;9.40;;
5357;SDS011;2702;51.014;7.170;2022-07-23T07:32:38;12.70;;;10.50;;
5357;SDS011;2702;51.014;7.170;2022-07-23T07:35:05;11.10;;;10.00;;
5357;SDS011;2702;51.014;7.170;2022-07-23T07:37:32;11.20;;;9.43;;
5357;SDS011;2702;51.014;7.170;2022-07-23T07:39:58;10.37;;;9.37;;
5357;SDS011;2702;51.014;7.170;2022-07-23T07:42:24;11.20;;;10.07;;
5357;SDS011;2702;51.014;7.170;2022-07-23T07:44:50;14.37;;;10.60;;
5357;SDS011;2702;51.014;7.170;2022-07-23T07:47:16;9.83;;;8.50;;
5357;SDS011;2702;51.014;7.170;2022-07-23T07:49:42;9.83;;;8.83;;
5357;SDS011;2702;51.014;7.170;2022-07-23T07:52:08;10.87;;;9.60;;
5357;SDS011;2702;51.014;7.170;2022-07-23T07:54:35;10.13;;;9.13;;
5357;SDS011;2702;51.014;7.170;2022-07-23T07:57:01;10.47;;;9.40;;
5357;SDS011;2702;51.014;7.170;2022-07-23T07:59:27;12.07;;;9.60;;
5357;SDS011;2702;51.014;7.170;2022-07-23T08:01:53;11.50;;;10.30;;
5357;SDS011;2702;51.014;7.170;2022-07-23T08:04:19;12.10;;;9.80;;
5357;SDS011;2702;51.014;7.170;2022-07-23T08:06:45;10.40;;;8.70;;
5357;SDS011;2702;51.014;7.170;2022-07-23T08:09:11;10.90;;;9.90;;
5357;SDS011;2702;51.014;7.170;2022-07-23T08:11:37;11.43;;;10.33;;
5357;SDS011;2702;51.014;7.170;2022-07-23T08:14:03;10.73;;;9.50;;
5357;SDS011;2702;51.014;7.170;2022-07-23T08:16:29;10.57;;;9.37;;
5357;SDS011;2702;51.014;7.170;2022-07-23T08:18:54;11.27;;;10.13;;
5357;SDS011;2702;51.014;7.170;2022-07-23T08:21:20;10.00;;;9.10;;
5357;SDS011;2702;51.014;7.170;2022-07-23T08:23:46;9.80;;;8.80;;
5357;SDS011;2702;51.014;7.170;2022-07-23T08:26:12;10.13;;;9.17;;
5357;SDS011;2702;51.014;7.170;2022-07-23T08:28:38;11.27;;;10.13;;
5357;SDS011;2702;51.014;7.170;2022-07-23T08:31:04;9.30;;;8.30;;
5357;SDS011;2702;51.014;7.170;2022-07-23T08:33:31;12.27;;;9.70;;
5357;SDS011;2702;51.014;7.170;2022-07-23T08:35:57;11.03;;;9.90;;
5357;SDS011;2702;51.014;7.170;2022-07-23T08:38:23;9.03;;;8.03;;
5357;SDS011;2702;51.014;7.170;2022-07-23T08:40:51;9.30;;;8.30;;
5357;SDS011;2702;51.014;7.170;2022-07-23T08:43:20;11.87;;;9.27;;
5357;SDS011;2702;51.014;7.170;2022-07-23T08:45:51;11.43;;;9.80;;
5357;SDS011;2702;51.014;7.170;2022-07-23T08:48:22;9.17;;;8.27;;
5357;SDS011;2702;51.014;7.170;2022-07-23T08:50:50;10.60;;;9.50;;
5357;SDS011;2702;51.014;7.170;2022-07-23T08:53:22;9.47;;;8.47;;
5357;SDS011;2702;51.014;7.170;2022-07-23T08:55:50;9.93;;;9.03;;
5357;SDS011;2702;51.014;7.170;2022-07-23T08:58:17;9.50;;;8.60;;
5357;SDS011;2702;51.014;7.170;2022-07-23T09:00:44;9.07;;;8.27;;
5357;SDS011;2702;51.014;7.170;2022-07-23T09:03:21;9.63;;;8.70;;
5357;SDS011;2702;51.014;7.170;2022-07-23T09:05:51;9.67;;;8.87;;
5357;SDS011;2702;51.014;7.170;2022-07-23T09:08:20;9.70;;;8.50;;
5357;SDS011;2702;51.014;7.170;2022-07-23T09:10:57;8.97;;;8.07;;
5357;SDS011;2702;51.014;7.170;2022-07-23T09:18:41;8.90;;;7.67;;
5357;SDS011;2702;51.014;7.170;2022-07-23T09:21:10;8.83;;;7.93;;
5357;SDS011;2702;51.014;7.170;2022-07-23T09:23:38;8.67;;;7.90;;
5357;SDS011;2702;51.014;7.170;2022-07-23T09:26:16;9.10;;;8.20;;
5357;SDS011;2702;51.014;7.170;2022-07-23T09:28:58;10.30;;;8.37;;
5357;SDS011;2702;51.014;7.170;2022-07-23T09:31:31;9.73;;;8.07;;
5357;SDS011;2702;51.014;7.170;2022-07-23T09:34:12;8.80;;;7.90;;
5357;SDS011;2702;51.014;7.170;2022-07-23T09:36:41;7.73;;;7.07;;
5357;SDS011;2702;51.014;7.170;2022-07-23T09:39:07;7.90;;;7.00;;
5357;SDS011;2702;51.014;7.170;2022-07-23T09:41:35;10.50;;;8.00;;
5357;SDS011;2702;51.014;7.170;2022-07-23T09:44:09;6.83;;;5.97;;
5357;SDS011;2702;51.014;7.170;2022-07-23T09:46:44;6.83;;;6.23;;
5357;SDS011;2702;51.014;7.170;2022-07-23T09:49:21;8.00;;;6.50;;
5357;SDS011;2702;51.014;7.170;2022-07-23T09:51:49;7.77;;;6.97;;
5357;SDS011;2702;51.014;7.170;2022-07-23T09:54:24;8.23;;;7.40;;
5357;SDS011;2702;51.014;7.170;2022-07-23T09:56:56;9.40;;;7.30;;
5357;SDS011;2702;51.014;7.170;2022-07-23T09:59:24;8.23;;;7.43;;
5357;SDS011;2702;51.014;7.170;2022-07-23T10:01:53;7.90;;;7.10;;
5357;SDS011;2702;51.014;7.170;2022-07-23T10:04:22;9.27;;;6.73;;
5357;SDS011;2702;51.014;7.170;2022-07-23T10:06:51;8.10;;;7.40;;
5357;SDS011;2702;51.014;7.170;2022-07-23T10:09:21;8.57;;;7.77;;
5357;SDS011;2702;51.014;7.170;2022-07-23T10:11:52;8.03;;;7.17;;
5357;SDS011;2702;51.014;7.170;2022-07-23T10:14:21;7.60;;;6.87;;
5357;SDS011;2702;51.014;7.170;2022-07-23T10:16:47;6.90;;;6.20;;
5357;SDS011;2702;51.014;7.170;2022-07-23T10:19:13;7.93;;;7.10;;
5357;SDS011;2702;51.014;7.170;2022-07-23T10:21:40;8.27;;;7.47;;
5357;SDS011;2702;51.014;7.170;2022-07-23T10:27:20;7.00;;;6.50;;
5357;SDS011;2702;51.014;7.170;2022-07-23T10:33:22;8.53;;;7.70;;
5357;SDS011;2702;51.014;7.170;2022-07-23T10:38:35;6.30;;;5.80;;
5357;SDS011;2702;51.014;7.170;2022-07-23T10:41:35;7.20;;;6.70;;
5357;SDS011;2702;51.014;7.170;2022-07-23T10:44:11;8.63;;;7.83;;
5357;SDS011;2702;51.014;7.170;2022-07-23T10:46:54;7.47;;;6.87;;
5357;SDS011;2702;51.014;7.170;2022-07-23T10:49:39;6.73;;;6.03;;
5357;SDS011;2702;51.014;7.170;2022-07-23T10:57:15;7.60;;;7.00;;
5357;SDS011;2702;51.014;7.170;2022-07-23T11:02:36;8.27;;;7.57;;
5357;SDS011;2702;51.014;7.170;2022-07-23T11:05:04;8.67;;;8.07;;
5357;SDS011;2702;51.014;7.170;2022-07-23T11:07:34;7.07;;;6.53;;
5357;SDS011;2702;51.014;7.170;2022-07-23T11:10:34;8.17;;;7.57;;
5357;SDS011;2702;51.014;7.170;2022-07-23T11:32:03;8.23;;;7.63;;
5357;SDS011;2702;51.014;7.170;2022-07-23T11:37:09;8.83;;;8.23;;
5357;SDS011;2702;51.014;7.170;2022-07-23T11:39:36;7.93;;;7.33;;
5357;SDS011;2702;51.014;7.170;2022-07-23T11:42:04;7.57;;;6.80;;
5357;SDS011;2702;51.014;7.170;2022-07-23T11:44:32;5.63;;;5.30;;
5357;SDS011;2702;51.014;7.170;2022-07-23T11:47:07;6.30;;;5.87;;
5357;SDS011;2702;51.014;7.170;2022-07-23T11:49:35;6.23;;;5.70;;
5357;SDS011;2702;51.014;7.170;2022-07-23T11:52:11;5.40;;;5.00;;
5357;SDS011;2702;51.014;7.170;2022-07-23T11:54:51;7.77;;;7.03;;
5357;SDS011;2702;51.014;7.170;2022-07-23T11:57:20;6.70;;;6.30;;
5357;SDS011;2702;51.014;7.170;2022-07-23T11:59:51;7.50;;;7.00;;
5357;SDS011;2702;51.014;7.170;2022-07-23T12:02:21;7.20;;;6.70;;
5357;SDS011;2702;51.014;7.170;2022-07-23T12:04:49;7.40;;;6.70;;
5357;SDS011;2702;51.014;7.170;2022-07-23T12:09:52;6.20;;;4.90;;
5357;SDS011;2702;51.014;7.170;2022-07-23T12:12:18;5.50;;;5.20;;
5357;SDS011;2702;51.014;7.170;2022-07-23T12:14:51;6.40;;;5.90;;
5357;SDS011;2702;51.014;7.170;2022-07-23T12:17:27;5.53;;;5.13;;
5357;SDS011;2702;51.014;7.170;2022-07-23T12:19:55;5.10;;;4.80;;
5357;SDS011;2702;51.014;7.170;2022-07-23T12:22:23;6.60;;;5.97;;
5357;SDS011;2702;51.014;7.170;2022-07-23T12:24:57;6.00;;;5.60;;
5357;SDS011;2702;51.014;7.170;2022-07-23T12:27:24;5.93;;;5.60;;
5357;SDS011;2702;51.014;7.170;2022-07-23T12:29:51;6.83;;;5.70;;
5357;SDS011;2702;51.014;7.170;2022-07-23T12:32:28;5.20;;;4.80;;
5357;SDS011;2702;51.014;7.170;2022-07-23T12:35:08;6.37;;;5.87;;
5357;SDS011;2702;51.014;7.170;2022-07-23T12:37:35;4.90;;;4.50;;
5357;SDS011;2702;51.014;7.170;2022-07-23T12:43:10;6.10;;;5.60;;
5357;SDS011;2702;51.014;7.170;2022-07-23T12:45:49;5.80;;;5.40;;
5357;SDS011;2702;51.014;7.170;2022-07-23T12:48:16;5.60;;;5.20;;
5357;SDS011;2702;51.014;7.170;2022-07-23T12:55:47;6.33;;;5.83;;
5357;SDS011;2702;51.014;7.170;2022-07-23T12:58:14;7.60;;;6.27;;
5357;SDS011;2702;51.014;7.170;2022-07-23T13:00:52;7.23;;;6.63;;
5357;SDS011;2702;51.014;7.170;2022-07-23T13:03:25;7.60;;;7.00;;
5357;SDS011;2702;51.014;7.170;2022-07-23T13:05:56;7.70;;;6.97;;
5357;SDS011;2702;51.014;7.170;2022-07-23T13:08:24;8.93;;;8.23;;
5357;SDS011;2702;51.014;7.170;2022-07-23T13:10:51;8.40;;;7.60;;
5357;SDS011;2702;51.014;7.170;2022-07-23T13:13:18;7.97;;;7.33;;
5357;SDS011;2702;51.014;7.170;2022-07-23T13:15:47;8.07;;;7.40;;
5357;SDS011;2702;51.014;7.170;2022-07-23T13:18:13;7.57;;;6.87;;
5357;SDS011;2702;51.014;7.170;2022-07-23T13:20:39;7.33;;;6.73;;
5357;SDS011;2702;51.014;7.170;2022-07-23T13:23:05;7.67;;;7.17;;
5357;SDS011;2702;51.014;7.170;2022-07-23T13:25:32;9.00;;;8.20;;
5357;SDS011;2702;51.014;7.170;2022-07-23T13:27:58;8.30;;;7.53;;
5357;SDS011;2702;51.014;7.170;2022-07-23T13:30:25;7.80;;;7.10;;
5357;SDS011;2702;51.014;7.170;2022-07-23T13:32:51;8.30;;;7.50;;
5357;SDS011;2702;51.014;7.170;2022-07-23T13:35:17;8.33;;;7.33;;
5357;SDS011;2702;51.014;7.170;2022-07-23T13:37:43;8.17;;;7.37;;
5357;SDS011;2702;51.014;7.170;2022-07-23T13:40:09;8.83;;;8.13;;
5357;SDS011;2702;51.014;7.170;2022-07-23T13:42:36;8.77;;;8.00;;
5357;SDS011;2702;51.014;7.170;2022-07-23T13:45:03;9.10;;;8.30;;
5357;SDS011;2702;51.014;7.170;2022-07-23T13:47:30;8.73;;;8.03;;
5357;SDS011;2702;51.014;7.170;2022-07-23T13:49:56;8.90;;;8.20;;
5357;SDS011;2702;51.014;7.170;2022-07-23T13:52:22;8.83;;;8.13;;
5357;SDS011;2702;51.014;7.170;2022-07-23T13:54:49;8.30;;;7.60;;
5357;SDS011;2702;51.014;7.170;2022-07-23T13:57:15;9.00;;;8.27;;
5357;SDS011;2702;51.014;7.170;2022-07-23T13:59:41;8.43;;;7.70;;
5357;SDS011;2702;51.014;7.170;2022-07-23T14:02:09;8.57;;;7.77;;
5357;SDS011;2702;51.014;7.170;2022-07-23T14:04:35;9.60;;;7.63;;
5357;SDS011;2702;51.014;7.170;2022-07-23T14:07:01;8.70;;;8.00;;
5357;SDS011;2702;51.014;7.170;2022-07-23T14:09:27;8.00;;;7.30;;
5357;SDS011;2702;51.014;7.170;2022-07-23T14:11:53;8.20;;;7.50;;
5357;SDS011;2702;51.014;7.170;2022-07-23T14:14:19;7.70;;;7.10;;
5357;SDS011;2702;51.014;7.170;2022-07-23T14:16:45;8.10;;;7.37;;
5357;SDS011;2702;51.014;7.170;2022-07-23T14:19:11;7.53;;;7.00;;
5357;SDS011;2702;51.014;7.170;2022-07-23T14:21:37;6.27;;;5.77;;
5357;SDS011;2702;51.014;7.170;2022-07-23T14:24:03;5.97;;;5.47;;
5357;SDS011;2702;51.014;7.170;2022-07-23T14:26:29;6.90;;;6.37;;
5357;SDS011;2702;51.014;7.170;2022-07-23T14:28:55;7.50;;;6.00;;
5357;SDS011;2702;51.014;7.170;2022-07-23T14:31:21;6.60;;;5.60;;
5357;SDS011;2702;51.014;7.170;2022-07-23T14:33:47;6.70;;;5.40;;
5357;SDS011;2702;51.014;7.170;2022-07-23T14:36:14;5.67;;;5.17;;
5357;SDS011;2702;51.014;7.170;2022-07-23T14:38:40;5.33;;;4.93;;
5357;SDS011;2702;51.014;7.170;2022-07-23T14:41:06;5.43;;;4.67;;
5357;SDS011;2702;51.014;7.170;2022-07-23T14:43:33;6.00;;;5.50;;
5357;SDS011;2702;51.014;7.170;2022-07-23T14:45:59;5.90;;;5.30;;
5357;SDS011;2702;51.014;7.170;2022-07-23T14:48:25;6.50;;;5.10;;
5357;SDS011;2702;51.014;7.170;2022-07-23T14:50:51;6.17;;;5.67;;
5357;SDS011;2702;51.014;7.170;2022-07-23T14:53:17;5.60;;;5.20;;
5357;SDS011;2702;51.014;7.170;2022-07-23T14:55:43;5.43;;;5.00;;
5357;SDS011;2702;51.014;7.170;2022-07-23T14:58:09;5.43;;;4.93;;
5357;SDS011;2702;51.014;7.170;2022-07-23T15:00:35;5.40;;;5.00;;
5357;SDS011;2702;51.014;7.170;2022-07-23T15:03:00;5.23;;;4.83;;
5357;SDS011;2702;51.014;7.170;2022-07-23T15:05:27;5.47;;;4.90;;
5357;SDS011;2702;51.014;7.170;2022-07-23T15:07:54;5.70;;;4.07;;
5357;SDS011;2702;51.014;7.170;2022-07-23T15:10:20;4.63;;;4.33;;
5357;SDS011;2702;51.014;7.170;2022-07-23T15:12:46;4.90;;;4.50;;
5357;SDS011;2702;51.014;7.170;2022-07-23T15:15:12;5.00;;;4.60;;
5357;SDS011;2702;51.014;7.170;2022-07-23T15:17:38;5.93;;;4.60;;
5357;SDS011;2702;51.014;7.170;2022-07-23T15:20:05;4.30;;;3.90;;
5357;SDS011;2702;51.014;7.170;2022-07-23T15:22:31;5.33;;;4.83;;
5357;SDS011;2702;51.014;7.170;2022-07-23T15:24:57;4.90;;;4.50;;
5357;SDS011;2702;51.014;7.170;2022-07-23T15:27:23;4.60;;;4.13;;
5357;SDS011;2702;51.014;7.170;2022-07-23T15:29:49;5.50;;;5.00;;
5357;SDS011;2702;51.014;7.170;2022-07-23T15:32:15;4.90;;;4.50;;
5357;SDS011;2702;51.014;7.170;2022-07-23T15:34:41;5.10;;;4.60;;
5357;SDS011;2702;51.014;7.170;2022-07-23T15:37:07;5.93;;;5.43;;
5357;SDS011;2702;51.014;7.170;2022-07-23T15:39:33;4.60;;;4.20;;
5357;SDS011;2702;51.014;7.170;2022-07-23T15:41:59;4.93;;;4.50;;
5357;SDS011;2702;51.014;7.170;2022-07-23T15:44:25;6.60;;;4.63;;
5357;SDS011;2702;51.014;7.170;2022-07-23T15:46:52;4.73;;;4.40;;
5357;SDS011;2702;51.014;7.170;2022-07-23T15:49:18;5.07;;;4.57;;
5357;SDS011;2702;51.014;7.170;2022-07-23T15:51:44;5.20;;;4.50;;
5357;SDS011;2702;51.014;7.170;2022-07-23T15:54:10;5.30;;;4.80;;
5357;SDS011;2702;51.014;7.170;2022-07-23T15:56:36;4.53;;;4.10;;